sensor_id;sensor_type;location;lat;lon;timestamp;pressure;altitude;pressure_sealevel;temperature;humidity
43155;BME280;34212;51.018;13.586;2023-05-19T05:04:26;98675.00;;;12.97;53.13
43155;BME280;34212;51.018;13.586;2023-05-19T05:09:28;98685.03;;;13.03;52.96
43155;BME280;34212;51.018;13.586;2023-05-19T05:14:32;98680.63;;;13.10;53.12
43155;BME280;34212;51.018;13.586;2023-05-19T05:19:34;98687.78;;;13.17;53.28
43155;BME280;34212;51.018;13.586;2023-05-19T05:24:37;98682.75;;;13.23;53.39
43155;BME280;34212;51.018;13.586;2023-05-19T05:29:38;98676.91;;;13.27;53.18
43155;BME280;34212;51.018;13.586;2023-05-19T05:34:41;98683.22;;;13.34;53.33
43155;BME280;34212;51.018;13.586;2023-05-19T05:39:44;98686.72;;;13.35;53.12
43155;BME280;34212;51.018;13.586;2023-05-19T05:44:47;98678.66;;;13.43;52.94
43155;BME280;34212;51.018;13.586;2023-05-19T05:49:48;98675.75;;;13.53;53.03
43155;BME280;34212;51.018;13.586;2023-05-19T05:54:54;98680.69;;;13.64;53.04
43155;BME280;34212;51.018;13.586;2023-05-19T05:59:56;98686.94;;;13.79;52.55
43155;BME280;34212;51.018;13.586;2023-05-19T06:04:57;98690.50;;;13.95;52.88
43155;BME280;34212;51.018;13.586;2023-05-19T06:09:59;98691.03;;;14.13;53.05
43155;BME280;34212;51.018;13.586;2023-05-19T06:15:01;98684.59;;;14.22;53.03
43155;BME280;34212;51.018;13.586;2023-05-19T06:20:21;98688.19;;;14.29;52.79
43155;BME280;34212;51.018;13.586;2023-05-19T06:25:22;98675.44;;;14.31;53.02
43155;BME280;34212;51.018;13.586;2023-05-19T06:30:25;98688.78;;;14.40;53.25
43155;BME280;34212;51.018;13.586;2023-05-19T06:35:36;98677.78;;;14.49;52.90
43155;BME280;34212;51.018;13.586;2023-05-19T06:40:37;98678.75;;;14.57;52.40
43155;BME280;34212;51.018;13.586;2023-05-19T06:45:39;98679.78;;;14.70;52.78
43155;BME280;34212;51.018;13.586;2023-05-19T06:50:41;98676.69;;;14.73;nan
43155;BME280;34212;51.018;13.586;2023-05-19T06:55:43;98675.31;;;14.77;52.96
43155;BME280;34212;51.018;13.586;2023-05-19T07:00:59;98678.75;;;14.71;53.36
43155;BME280;34212;51.018;13.586;2023-05-19T07:06:07;98670.69;;;14.86;53.21
43155;BME280;34212;51.018;13.586;2023-05-19T07:11:10;98672.06;;;15.12;52.59
43155;BME280;34212;51.018;13.586;2023-05-19T07:16:13;98670.19;;;15.27;52.68
43155;BME280;34212;51.018;13.586;2023-05-19T07:21:15;98675.72;;;15.25;52.50
43155;BME280;34212;51.018;13.586;2023-05-19T07:26:16;98666.38;;;15.21;53.31
43155;BME280;34212;51.018;13.586;2023-05-19T07:31:18;98664.59;;;15.29;53.56
43155;BME280;34212;51.018;13.586;2023-05-19T07:36:20;98661.06;;;15.43;53.43
43155;BME280;34212;51.018;13.586;2023-05-19T07:41:21;98661.94;;;15.50;53.46
43155;BME280;34212;51.018;13.586;2023-05-19T07:46:23;98661.84;;;15.58;53.59
43155;BME280;34212;51.018;13.586;2023-05-19T07:51:24;98648.47;;;15.65;52.94
43155;BME280;34212;51.018;13.586;2023-05-19T07:56:26;98662.19;;;15.70;52.65
43155;BME280;34212;51.018;13.586;2023-05-19T08:01:29;98647.56;;;15.79;52.95
43155;BME280;34212;51.018;13.586;2023-05-19T08:06:30;98655.72;;;15.86;52.71
43155;BME280;34212;51.018;13.586;2023-05-19T08:11:32;98654.03;;;15.85;52.03
43155;BME280;34212;51.018;13.586;2023-05-19T08:16:33;98658.47;;;15.92;52.29
43155;BME280;34212;51.018;13.586;2023-05-19T08:21:35;98656.66;;;16.00;51.79
43155;BME280;34212;51.018;13.586;2023-05-19T08:26:37;98653.63;;;16.09;51.81
43155;BME280;34212;51.018;13.586;2023-05-19T08:31:38;98656.28;;;16.31;51.67
43155;BME280;34212;51.018;13.586;2023-05-19T08:36:40;98642.81;;;16.59;51.49
43155;BME280;34212;51.018;13.586;2023-05-19T08:41:42;98645.91;;;16.91;50.98
43155;BME280;34212;51.018;13.586;2023-05-19T08:46:44;98634.22;;;17.18;50.26
43155;BME280;34212;51.018;13.586;2023-05-19T08:52:02;98634.72;;;17.42;50.35
43155;BME280;34212;51.018;13.586;2023-05-19T08:57:06;98633.28;;;17.52;49.45
43155;BME280;34212;51.018;13.586;2023-05-19T09:02:10;98629.56;;;17.60;49.09
43155;BME280;34212;51.018;13.586;2023-05-19T09:07:13;98626.47;;;17.70;49.19
43155;BME280;34212;51.018;13.586;2023-05-19T09:12:15;98623.41;;;17.86;48.75
43155;BME280;34212;51.018;13.586;2023-05-19T09:17:17;98610.53;;;18.02;48.75
43155;BME280;34212;51.018;13.586;2023-05-19T09:22:19;98621.72;;;18.12;48.42
43155;BME280;34212;51.018;13.586;2023-05-19T09:27:21;98617.78;;;18.08;48.88
43155;BME280;34212;51.018;13.586;2023-05-19T09:32:26;98615.50;;;18.05;48.58
43155;BME280;34212;51.018;13.586;2023-05-19T09:37:28;98620.91;;;18.11;49.03
43155;BME280;34212;51.018;13.586;2023-05-19T09:42:36;98611.53;;;18.27;49.02
43155;BME280;34212;51.018;13.586;2023-05-19T09:47:40;98604.25;;;18.34;48.37
43155;BME280;34212;51.018;13.586;2023-05-19T09:52:43;98597.22;;;18.27;48.01
43155;BME280;34212;51.018;13.586;2023-05-19T09:57:44;98599.53;;;18.16;48.15
43155;BME280;34212;51.018;13.586;2023-05-19T10:02:47;98594.53;;;18.07;48.01
43155;BME280;34212;51.018;13.586;2023-05-19T10:07:51;98588.91;;;18.15;48.00
43155;BME280;34212;51.018;13.586;2023-05-19T10:12:54;98591.38;;;18.36;46.95
43155;BME280;34212;51.018;13.586;2023-05-19T10:17:56;98586.56;;;18.52;46.46
43155;BME280;34212;51.018;13.586;2023-05-19T10:22:59;98591.72;;;18.66;47.11
43155;BME280;34212;51.018;13.586;2023-05-19T10:28:06;98577.41;;;18.73;46.80
43155;BME280;34212;51.018;13.586;2023-05-19T10:33:13;98580.09;;;18.73;47.28
43155;BME280;34212;51.018;13.586;2023-05-19T10:38:39;98568.00;;;18.75;46.44
43155;BME280;34212;51.018;13.586;2023-05-19T10:48:45;98572.69;;;18.41;46.75
43155;BME280;34212;51.018;13.586;2023-05-19T10:53:47;98579.78;;;18.29;47.05
43155;BME280;34212;51.018;13.586;2023-05-19T10:58:50;98582.66;;;18.28;46.62
43155;BME280;34212;51.018;13.586;2023-05-19T11:03:53;98570.16;;;18.46;46.29
43155;BME280;34212;51.018;13.586;2023-05-19T11:08:59;98578.88;;;18.55;46.63
43155;BME280;34212;51.018;13.586;2023-05-19T11:14:02;98574.25;;;18.62;46.99
43155;BME280;34212;51.018;13.586;2023-05-19T11:19:05;98575.25;;;18.81;46.63
43155;BME280;34212;51.018;13.586;2023-05-19T11:24:07;98574.59;;;18.92;46.44
43155;BME280;34212;51.018;13.586;2023-05-19T11:29:09;98560.47;;;18.90;46.13
43155;BME280;34212;51.018;13.586;2023-05-19T11:34:12;98581.84;;;18.99;46.24
43155;BME280;34212;51.018;13.586;2023-05-19T11:39:14;98559.91;;;19.20;46.25
43155;BME280;34212;51.018;13.586;2023-05-19T11:44:15;98564.38;;;19.39;46.32
43155;BME280;34212;51.018;13.586;2023-05-19T11:49:17;98562.72;;;19.38;45.58
43155;BME280;34212;51.018;13.586;2023-05-19T11:54:19;98555.25;;;19.34;45.83
43155;BME280;34212;51.018;13.586;2023-05-19T11:59:28;98561.22;;;19.43;45.35
43155;BME280;34212;51.018;13.586;2023-05-19T12:04:30;98578.66;;;19.47;45.27
43155;BME280;34212;51.018;13.586;2023-05-19T12:09:32;98567.00;;;19.46;45.09
43155;BME280;34212;51.018;13.586;2023-05-19T12:14:34;98585.75;;;19.48;45.29
43155;BME280;34212;51.018;13.586;2023-05-19T12:19:36;98563.97;;;19.68;45.30
43155;BME280;34212;51.018;13.586;2023-05-19T12:24:38;98552.06;;;19.75;44.58
43155;BME280;34212;51.018;13.586;2023-05-19T12:29:40;98544.00;;;19.94;44.25
43155;BME280;34212;51.018;13.586;2023-05-19T12:34:42;98568.91;;;20.02;44.62
43155;BME280;34212;51.018;13.586;2023-05-19T12:39:44;98555.66;;;19.94;44.88
43155;BME280;34212;51.018;13.586;2023-05-19T12:44:47;98551.47;;;19.73;45.09
43155;BME280;34212;51.018;13.586;2023-05-19T12:50:04;98553.34;;;19.98;44.85
43155;BME280;34212;51.018;13.586;2023-05-19T12:55:07;98547.50;;;20.19;44.83
43155;BME280;34212;51.018;13.586;2023-05-19T13:00:16;98544.50;;;20.83;44.71
43155;BME280;34212;51.018;13.586;2023-05-19T13:05:21;98526.19;;;23.03;41.82
43155;BME280;34212;51.018;13.586;2023-05-19T13:10:23;98530.56;;;24.17;40.24
43155;BME280;34212;51.018;13.586;2023-05-19T13:15:29;98526.13;;;25.75;37.98
43155;BME280;34212;51.018;13.586;2023-05-19T13:20:39;98533.97;;;25.66;37.30
43155;BME280;34212;51.018;13.586;2023-05-19T13:25:41;98534.72;;;24.58;38.12
43155;BME280;34212;51.018;13.586;2023-05-19T13:30:43;98536.09;;;23.55;39.43
43155;BME280;34212;51.018;13.586;2023-05-19T13:35:45;98543.97;;;22.70;40.23
43155;BME280;34212;51.018;13.586;2023-05-19T13:40:47;98537.66;;;21.94;41.13
43155;BME280;34212;51.018;13.586;2023-05-19T13:45:48;98538.31;;;21.54;41.32
43155;BME280;34212;51.018;13.586;2023-05-19T13:50:50;98542.69;;;21.25;41.62
43155;BME280;34212;51.018;13.586;2023-05-19T13:55:54;98545.75;;;20.98;42.20
43155;BME280;34212;51.018;13.586;2023-05-19T14:00:56;98538.44;;;20.87;42.44
43155;BME280;34212;51.018;13.586;2023-05-19T14:06:00;98540.91;;;20.70;42.47
43155;BME280;34212;51.018;13.586;2023-05-19T14:11:02;98537.91;;;20.60;42.93
43155;BME280;34212;51.018;13.586;2023-05-19T14:16:04;98537.19;;;20.53;43.59
43155;BME280;34212;51.018;13.586;2023-05-19T14:21:05;98548.28;;;20.45;43.60
43155;BME280;34212;51.018;13.586;2023-05-19T14:26:07;98546.38;;;20.45;43.99
43155;BME280;34212;51.018;13.586;2023-05-19T14:31:11;98525.53;;;20.46;43.93
43155;BME280;34212;51.018;13.586;2023-05-19T14:36:13;98533.91;;;20.44;43.78
43155;BME280;34212;51.018;13.586;2023-05-19T14:41:15;98539.00;;;20.34;44.11
43155;BME280;34212;51.018;13.586;2023-05-19T14:46:16;98542.84;;;20.26;44.59
43155;BME280;34212;51.018;13.586;2023-05-19T14:51:18;98535.88;;;20.12;44.97
43155;BME280;34212;51.018;13.586;2023-05-19T14:56:19;98544.97;;;19.99;45.01
43155;BME280;34212;51.018;13.586;2023-05-19T15:01:22;98547.97;;;19.91;45.47
43155;BME280;34212;51.018;13.586;2023-05-19T15:06:24;98540.09;;;20.08;45.15
43155;BME280;34212;51.018;13.586;2023-05-19T15:11:28;98544.75;;;20.44;45.16
43155;BME280;34212;51.018;13.586;2023-05-19T15:16:30;98552.94;;;20.93;44.75
43155;BME280;34212;51.018;13.586;2023-05-19T15:21:32;98542.19;;;21.16;44.91
43155;BME280;34212;51.018;13.586;2023-05-19T15:26:34;98545.78;;;21.29;44.80
43155;BME280;34212;51.018;13.586;2023-05-19T15:31:36;98542.81;;;21.18;45.15
43155;BME280;34212;51.018;13.586;2023-05-19T15:36:39;98550.09;;;20.88;44.98
43155;BME280;34212;51.018;13.586;2023-05-19T15:41:40;98555.56;;;20.44;45.63
43155;BME280;34212;51.018;13.586;2023-05-19T15:46:42;98553.03;;;20.06;45.97
43155;BME280;34212;51.018;13.586;2023-05-19T15:51:43;98551.41;;;19.80;46.60
43155;BME280;34212;51.018;13.586;2023-05-19T15:56:45;98565.03;;;19.67;46.73
43155;BME280;34212;51.018;13.586;2023-05-19T16:01:47;98560.72;;;19.52;46.94
43155;BME280;34212;51.018;13.586;2023-05-19T16:06:51;98569.19;;;19.31;47.54
43155;BME280;34212;51.018;13.586;2023-05-19T16:11:53;98575.34;;;19.13;47.33
43155;BME280;34212;51.018;13.586;2023-05-19T16:16:54;98581.66;;;18.93;47.52
43155;BME280;34212;51.018;13.586;2023-05-19T16:21:58;98581.94;;;18.79;47.89
43155;BME280;34212;51.018;13.586;2023-05-19T16:27:00;98583.81;;;18.65;47.74
43155;BME280;34212;51.018;13.586;2023-05-19T16:32:08;98584.91;;;18.51;48.24
43155;BME280;34212;51.018;13.586;2023-05-19T16:37:11;98572.06;;;18.39;48.64
43155;BME280;34212;51.018;13.586;2023-05-19T16:42:14;98577.69;;;18.24;48.59
43155;BME280;34212;51.018;13.586;2023-05-19T16:47:20;98573.97;;;18.12;48.75
43155;BME280;34212;51.018;13.586;2023-05-19T16:52:34;98582.06;;;18.06;48.82
43155;BME280;34212;51.018;13.586;2023-05-19T16:58:00;98583.13;;;17.91;48.89
43155;BME280;34212;51.018;13.586;2023-05-19T17:03:02;98581.06;;;17.80;48.75
43155;BME280;34212;51.018;13.586;2023-05-19T17:08:04;98584.31;;;17.69;49.23
43155;BME280;34212;51.018;13.586;2023-05-19T17:13:06;98578.94;;;17.62;49.26
43155;BME280;34212;51.018;13.586;2023-05-19T17:18:08;98578.09;;;17.55;49.42
43155;BME280;34212;51.018;13.586;2023-05-19T17:23:11;98578.28;;;17.47;49.48
43155;BME280;34212;51.018;13.586;2023-05-19T17:28:12;98582.03;;;17.39;49.76
43155;BME280;34212;51.018;13.586;2023-05-19T17:33:14;98583.25;;;17.30;49.79
43155;BME280;34212;51.018;13.586;2023-05-19T17:38:16;98587.81;;;17.23;49.88
43155;BME280;34212;51.018;13.586;2023-05-19T17:43:17;98596.25;;;17.13;50.27
43155;BME280;34212;51.018;13.586;2023-05-19T17:48:19;98595.00;;;17.09;50.43
43155;BME280;34212;51.018;13.586;2023-05-19T17:53:20;98592.03;;;16.97;50.92
43155;BME280;34212;51.018;13.586;2023-05-19T17:58:22;98587.47;;;16.91;51.06
43155;BME280;34212;51.018;13.586;2023-05-19T18:03:24;98577.91;;;16.82;50.97
43155;BME280;34212;51.018;13.586;2023-05-19T18:08:26;98575.53;;;16.72;51.08
43155;BME280;34212;51.018;13.586;2023-05-19T18:13:28;98583.59;;;16.66;51.50
43155;BME280;34212;51.018;13.586;2023-05-19T18:18:30;98584.41;;;16.59;51.96
43155;BME280;34212;51.018;13.586;2023-05-19T18:23:33;98584.59;;;16.51;51.96
43155;BME280;34212;51.018;13.586;2023-05-19T18:28:35;98578.31;;;16.44;51.96
43155;BME280;34212;51.018;13.586;2023-05-19T18:33:36;98582.00;;;16.36;52.44
43155;BME280;34212;51.018;13.586;2023-05-19T18:38:39;98573.91;;;16.30;52.62
43155;BME280;34212;51.018;13.586;2023-05-19T18:43:40;98584.81;;;16.22;52.67
43155;BME280;34212;51.018;13.586;2023-05-19T18:48:42;98592.44;;;16.18;52.31
43155;BME280;34212;51.018;13.586;2023-05-19T18:53:45;98584.94;;;16.13;53.01
43155;BME280;34212;51.018;13.586;2023-05-19T18:58:49;98591.09;;;16.07;53.29
43155;BME280;34212;51.018;13.586;2023-05-19T19:03:51;98600.59;;;16.03;53.12
43155;BME280;34212;51.018;13.586;2023-05-19T19:08:52;98596.00;;;15.97;53.40
43155;BME280;34212;51.018;13.586;2023-05-19T19:13:54;98596.78;;;15.91;53.09
43155;BME280;34212;51.018;13.586;2023-05-19T19:18:56;98594.25;;;15.83;53.39
43155;BME280;34212;51.018;13.586;2023-05-19T19:23:58;98605.78;;;15.77;54.04
43155;BME280;34212;51.018;13.586;2023-05-19T19:29:00;98604.50;;;15.73;54.28
43155;BME280;34212;51.018;13.586;2023-05-19T19:34:01;98604.59;;;15.64;54.45
43155;BME280;34212;51.018;13.586;2023-05-19T19:39:09;98601.66;;;15.59;54.98
43155;BME280;34212;51.018;13.586;2023-05-19T19:44:10;98595.63;;;15.57;55.02
43155;BME280;34212;51.018;13.586;2023-05-19T19:49:12;98603.69;;;15.57;54.84
43155;BME280;34212;51.018;13.586;2023-05-19T19:54:13;98598.16;;;15.59;54.91
43155;BME280;34212;51.018;13.586;2023-05-19T19:59:15;98595.63;;;15.57;54.92
43155;BME280;34212;51.018;13.586;2023-05-19T20:04:16;98596.66;;;15.56;55.21
43155;BME280;34212;51.018;13.586;2023-05-19T20:09:18;98603.84;;;15.49;55.04
43155;BME280;34212;51.018;13.586;2023-05-19T20:14:20;98608.94;;;15.44;55.61
43155;BME280;34212;51.018;13.586;2023-05-19T20:19:21;98606.41;;;15.36;55.59
43155;BME280;34212;51.018;13.586;2023-05-19T20:24:25;98605.31;;;15.30;56.01
43155;BME280;34212;51.018;13.586;2023-05-19T20:29:27;98604.47;;;15.30;55.76
43155;BME280;34212;51.018;13.586;2023-05-19T20:34:28;98599.09;;;15.30;56.06
43155;BME280;34212;51.018;13.586;2023-05-19T20:39:30;98603.44;;;15.31;56.16
43155;BME280;34212;51.018;13.586;2023-05-19T20:44:31;98607.78;;;15.32;56.69
43155;BME280;34212;51.018;13.586;2023-05-19T20:49:33;98599.34;;;15.35;56.38
43155;BME280;34212;51.018;13.586;2023-05-19T20:54:35;98609.72;;;15.38;56.65
43155;BME280;34212;51.018;13.586;2023-05-19T20:59:37;98603.72;;;15.36;56.77
43155;BME280;34212;51.018;13.586;2023-05-19T21:04:38;98597.47;;;15.35;56.53
43155;BME280;34212;51.018;13.586;2023-05-19T21:09:40;98591.66;;;15.32;56.79
43155;BME280;34212;51.018;13.586;2023-05-19T21:14:43;98595.75;;;15.28;56.74
43155;BME280;34212;51.018;13.586;2023-05-19T21:19:44;98604.22;;;15.24;57.13
43155;BME280;34212;51.018;13.586;2023-05-19T21:24:46;98603.38;;;15.24;57.39
43155;BME280;34212;51.018;13.586;2023-05-19T21:29:51;98606.63;;;15.19;57.52
43155;BME280;34212;51.018;13.586;2023-05-19T21:34:53;98613.78;;;15.12;57.69
43155;BME280;34212;51.018;13.586;2023-05-19T21:39:55;98601.75;;;15.08;57.65
43155;BME280;34212;51.018;13.586;2023-05-19T21:44:56;98605.81;;;15.04;57.83
43155;BME280;34212;51.018;13.586;2023-05-19T21:49:58;98595.84;;;14.98;57.91
43155;BME280;34212;51.018;13.586;2023-05-19T21:54:59;98593.28;;;14.90;57.68
43155;BME280;34212;51.018;13.586;2023-05-19T22:00:01;98597.81;;;14.89;58.06
